Latest Weather Observations for Geelong Racecourse

IDV60801

Issued at 1:31 pm EST Monday 2 May 2016 (issued every 30 minutes, with the page automatically refreshed every 10 minutes)

About weather observations | Map of weather stations | Latest weather observations for VIC | Other Formats
Station Details ID: 087184 Name: GEELONG RACECOURSE Lat: -38.17 Lon: 144.38 Height: 12.9 m
Data from the previous 72 hours. | See also: Recent months at Geelong Racecourse
Date/Time
EST
Temp
°C
App
Temp
°C
Dew
Point
Rel
Hum
%
Delta-T
°C
Wind Press
QNH
hPa
Press
MSL
hPa
Rain
since 9 am
mm
Dir
 
Spd
km/h
Gust
km/h
Spd
kts
Gust
kts
02/01:30pm 17.8 10.9 6.3 47 5.7 NNW 32 54 17 29 1008.4 1008.4 0.0
02/01:00pm 17.8 11.6 6.0 46 5.8 NNW 28 46 15 25 1009.0 1009.0 0.0
02/12:32pm 17.1 10.0 5.7 47 5.5 NW 32 54 17 29 1009.3 1009.3 0.0
02/12:30pm 17.3 10.3 5.9 47 5.6 NW 32 44 17 24 1009.3 1009.3 0.0
02/12:00pm 17.2 10.9 5.5 46 5.7 NNW 28 48 15 26 1010.0 1010.0 0.0
02/11:54am 17.0 10.6 5.3 46 5.6 NNW 28 48 15 26 1010.2 1010.2 0.0
02/11:30am 17.4 12.4 6.3 48 5.5 NNW 22 41 12 22 1010.6 1010.6 0.0
02/11:00am 16.3 9.7 5.9 50 5.0 NNW 30 44 16 24 1010.6 1010.6 0.0
02/10:30am 15.5 10.1 6.2 54 4.5 NNW 24 37 13 20 1011.3 1011.3 0.0
02/10:00am 14.3 9.8 6.2 58 3.9 NNW 19 28 10 15 1011.7 1011.7 0.0
02/09:30am 13.7 10.0 6.3 61 3.5 NW 15 30 8 16 1012.0 1012.0 0.0
02/09:00am 11.9 8.9 5.8 66 2.8 NW 11 17 6 9 1012.2 1012.2 0.2
02/08:30am 11.0 7.5 5.3 68 2.6 NW 13 19 7 10 1012.6 1012.6 0.2
02/08:00am 10.5 6.5 5.1 69 2.5 NNW 15 22 8 12 1012.6 1012.6 0.2
02/07:30am 9.4 6.1 4.8 73 2.1 NW 11 17 6 9 1012.5 1012.5 0.2
02/07:00am 9.2 5.9 4.8 74 2.0 NW 11 17 6 9 1012.5 1012.5 0.2
02/06:30am 8.6 5.8 5.0 78 1.6 NW 9 13 5 7 1012.5 1012.5 0.2
02/06:00am 8.2 5.0 5.0 80 1.4 NW 11 15 6 8 1012.6 1012.6 0.2
02/05:30am 8.8 5.2 4.8 76 1.8 NW 13 19 7 10 1012.7 1012.7 0.2
02/05:00am 9.2 4.5 5.0 75 1.9 NW 19 22 10 12 1012.7 1012.7 0.2
02/04:30am 8.9 4.2 5.1 77 1.7 NW 19 24 10 13 1012.3 1012.3 0.2
02/04:00am 9.1 4.7 4.9 75 1.9 NW 17 24 9 13 1012.3 1012.3 0.2
02/03:30am 9.0 5.0 5.0 76 1.8 NW 15 20 8 11 1012.8 1012.8 0.2
02/03:00am 9.1 6.3 5.1 76 1.8 NW 9 17 5 9 1013.1 1013.1 0.2
02/02:30am 8.3 6.8 5.1 80 1.4 NNW 2 6 1 3 1013.6 1013.6 0.2
02/02:00am 9.0 6.6 5.4 78 1.6 NW 7 13 4 7 1013.9 1013.9 0.2
02/01:30am 8.9 6.2 5.5 79 1.5 NW 9 15 5 8 1014.1 1014.1 0.2
02/01:00am 8.9 5.9 5.8 81 1.4 NW 11 15 6 8 1014.1 1014.1 0.2
02/12:30am 8.7 7.1 6.2 84 1.1 NNW 4 9 2 5 1014.6 1014.6 0.2
02/12:00am 8.7 6.9 5.6 81 1.4 WNW 4 6 2 3 1014.9 1014.9 0.2
 
Date/Time
EST
Temp
°C
App
Temp
°C
Dew
Point
Rel
Hum
%
Delta-T
°C
Wind Press
QNH
hPa
Press
MSL
hPa
Rain
since 9 am
mm
Dir
 
Spd
km/h
Gust
km/h
Spd
kts
Gust
kts
01/11:30pm 9.1 7.0 5.8 80 1.5 NW 6 9 3 5 1015.0 1015.0 0.2
01/11:00pm 9.6 7.1 6.7 82 1.4 NW 9 15 5 8 1015.2 1015.2 0.2
01/10:30pm 9.4 7.0 7.0 85 1.1 NW 9 11 5 6 1015.3 1015.3 0.2
01/10:00pm 9.4 7.5 6.7 83 1.3 NW 6 9 3 5 1015.4 1015.4 0.2
01/09:30pm 10.1 8.5 6.4 78 1.7 NW 4 7 2 4 1015.1 1015.1 0.2
01/09:00pm 10.4 7.5 6.7 78 1.7 NW 11 17 6 9 1015.0 1015.0 0.2
01/08:30pm 10.4 7.5 6.7 78 1.7 NW 11 19 6 10 1014.8 1014.8 0.2
01/08:00pm 10.6 7.0 6.9 78 1.7 NW 15 22 8 12 1014.5 1014.5 0.2
01/07:30pm 10.7 7.8 6.6 76 1.9 NW 11 17 6 9 1014.1 1014.1 0.2
01/07:00pm 10.8 8.2 6.0 72 2.2 NW 9 13 5 7 1014.0 1014.0 0.2
01/06:30pm 11.5 9.2 5.8 68 2.7 W 7 15 4 8 1013.5 1013.5 0.2
01/06:00pm 11.9 8.6 6.6 70 2.5 WNW 13 19 7 10 1013.2 1013.2 0.2
01/05:30pm 12.2 7.8 6.5 68 2.7 W 19 28 10 15 1012.5 1012.5 0.2
01/05:00pm 12.8 7.6 5.7 62 3.3 W 22 39 12 21 1012.1 1012.1 0.2
01/04:30pm 13.4 8.2 7.4 67 2.9 WNW 24 35 13 19 1011.8 1011.8 0.2
01/04:00pm 13.8 9.7 7.8 67 3.0 WNW 19 33 10 18 1011.2 1011.2 0.2
01/03:30pm 13.0 8.6 7.2 68 2.8 WNW 20 33 11 18 1011.0 1011.0 0.2
01/03:00pm 11.7 6.1 8.9 83 1.4 WNW 28 46 15 25 1010.9 1010.9 0.2
01/02:49pm 12.6 6.5 8.1 74 2.2 WNW 30 59 16 32 1010.6 1010.6 0.2
01/02:30pm 13.5 7.8 8.4 71 2.5 WNW 28 44 15 24 1010.0 1010.0 0.2
01/02:03pm 14.8 9.2 8.7 67 3.1 W 28 46 15 25 1009.4 1009.4 0.2
01/02:00pm 14.7 9.1 8.9 68 3.0 W 28 39 15 21 1009.4 1009.4 0.2
01/01:30pm 14.4 8.5 9.0 70 2.7 WNW 30 46 16 25 1009.0 1009.0 0.2
01/01:04pm 14.4 8.8 8.6 68 2.9 W 28 52 15 28 1008.8 1008.8 0.2
01/01:00pm 14.2 8.6 8.6 69 2.8 W 28 44 15 24 1008.8 1008.8 0.2
01/12:30pm 12.9 8.3 9.7 81 1.6 WNW 24 35 13 19 1009.0 1009.0 0.2
01/12:02pm 12.5 7.0 9.0 79 1.8 W 28 48 15 26 1009.3 1009.3 0.0
01/12:00pm 12.6 7.4 8.9 78 1.9 WNW 26 44 14 24 1009.2 1009.2 0.0
01/11:30am 13.0 8.4 9.8 81 1.6 WNW 24 39 13 21 1008.6 1008.6 0.0
01/11:00am 12.1 6.6 10.5 90 0.8 WNW 30 54 16 29 1008.5 1008.5 0.0
01/10:30am 13.9 7.7 9.3 74 2.3 WNW 32 56 17 30 1007.6 1007.6 0.0
01/10:00am 13.8 8.1 9.8 77 2.1 WNW 30 48 16 26 1006.7 1006.7 0.0
01/09:30am 14.4 8.4 10.0 75 2.3 WNW 32 54 17 29 1006.0 1006.0 0.0
01/09:00am 13.4 7.4 10.2 81 1.7 NW 32 52 17 28 1005.2 1005.2 13.0
01/08:53am 12.9 7.3 10.1 83 1.4 NW 30 52 16 28 1005.0 1005.0 13.0
01/08:30am 12.3 8.6 11.4 94 0.5 NW 22 41 12 22 1004.9 1004.9 13.0
01/08:00am 11.1 7.4 10.2 94 0.5 NW 20 32 11 17 1004.6 1004.6 13.0
01/07:33am 14.3 8.8 9.3 72 2.6 NW 28 57 15 31 1004.0 1004.0 11.8
01/07:30am 14.5 10.2 9.3 71 2.7 NW 22 39 12 21 1004.0 1004.0 11.8
01/07:00am 14.7 11.1 9.7 72 2.6 NW 19 30 10 16 1003.2 1003.2 11.8
01/06:30am 14.8 12.3 11.2 79 1.9 NNW 15 20 8 11 1002.9 1002.9 11.8
01/06:00am 15.1 12.2 10.9 76 2.2 NNW 17 22 9 12 1002.4 1002.4 11.8
01/05:30am 15.5 12.8 11.7 78 2.1 NNW 17 24 9 13 1002.2 1002.2 11.8
01/05:00am 15.5 13.1 13.7 89 1.0 NNW 19 28 10 15 1002.1 1002.1 11.8
01/04:30am 15.1 14.3 14.0 93 0.6 NNW 11 15 6 8 1001.8 1001.8 11.8
01/04:00am 15.2 14.8 14.1 93 0.6 NNW 9 15 5 8 1001.5 1001.5 11.8
01/03:30am 15.6 12.5 14.5 93 0.6 NW 24 37 13 20 1003.0 1003.0 11.8
01/03:00am 16.1 14.5 15.0 93 0.6 NNW 17 24 9 13 1002.6 1002.6 10.2
01/02:30am 16.3 12.6 15.0 92 0.8 NNW 28 41 15 22 1003.2 1003.2 7.6
01/02:00am 15.8 14.5 14.7 93 0.6 NNW 15 24 8 13 1003.3 1003.3 5.6
01/01:30am 17.9 14.2 13.8 77 2.3 NW 26 72 14 39 1004.4 1004.4 0.4
01/01:00am 20.7 18.0 15.5 72 3.1 N 24 39 13 21 1003.4 1003.4 0.0
01/12:39am 20.5 17.0 15.5 73 3.0 N 28 48 15 26 1003.6 1003.6 0.0
01/12:30am 20.3 18.0 15.7 75 2.7 N 22 37 12 20 1003.7 1003.7 0.0
01/12:00am 19.4 18.1 15.9 80 2.1 NNE 17 26 9 14 1004.0 1004.0 0.0
 
Date/Time
EST
Temp
°C
App
Temp
°C
Dew
Point
Rel
Hum
%
Delta-T
°C
Wind Press
QNH
hPa
Press
MSL
hPa
Rain
since 9 am
mm
Dir
 
Spd
km/h
Gust
km/h
Spd
kts
Gust
kts
30/11:30pm 19.9 18.0 15.7 77 2.5 NNE 20 33 11 18 1005.1 1005.1 0.0
30/11:00pm 18.5 18.5 17.2 92 0.8 NNE 13 19 7 10 1006.2 1006.2 0.0
30/10:30pm 18.2 18.5 16.9 92 0.8 NNE 11 17 6 9 1007.1 1007.1 0.0
30/10:00pm 18.4 18.0 17.1 92 0.8 NNE 15 20 8 11 1008.0 1008.0 0.0
30/09:30pm 17.8 17.9 16.5 92 0.8 NNE 11 17 6 9 1008.1 1008.1 0.0
30/09:00pm 17.9 17.5 16.1 89 1.1 NNE 13 20 7 11 1008.2 1008.2 0.0
30/08:30pm 18.6 17.6 15.5 82 1.8 NNE 15 22 8 12 1008.5 1008.5 0.0
30/08:00pm 19.1 18.6 15.0 77 2.4 NNE 11 17 6 9 1008.8 1008.8 0.0
30/07:30pm 19.6 18.6 14.6 73 2.9 N 13 20 7 11 1009.0 1009.0 0.0
30/07:00pm 19.8 18.7 14.2 70 3.2 NNE 13 22 7 12 1009.2 1009.2 0.0
30/06:30pm 20.7 18.9 13.4 63 4.2 N 15 20 8 11 1009.1 1009.1 0.0
30/06:00pm 21.4 18.8 13.1 59 4.8 N 19 28 10 15 1008.9 1008.9 0.0
30/05:30pm 21.8 19.1 12.9 57 5.1 N 19 26 10 14 1009.1 1009.1 0.0
30/05:00pm 22.9 20.0 12.2 51 6.1 N 19 30 10 16 1009.1 1009.1 0.0
30/04:30pm 23.0 20.6 12.6 52 5.9 N 17 24 9 13 1009.2 1009.2 0.0
30/04:00pm 23.6 21.3 12.9 51 6.2 N 17 30 9 16 1009.4 1009.4 0.0
30/03:30pm 24.5 21.5 12.5 47 6.9 NNW 20 35 11 19 1009.5 1009.5 0.0
30/03:00pm 24.5 21.8 13.4 50 6.5 NNW 20 30 11 16 1009.5 1009.5 0.0
30/02:30pm 23.8 19.9 13.4 52 6.0 NNW 26 39 14 21 1009.8 1009.8 0.0
30/02:00pm 23.5 19.6 13.4 53 5.9 NNW 26 43 14 23 1009.9 1009.9 0.0
30/01:30pm 24.0 21.0 13.8 53 6.0 NNW 22 33 12 18 1010.2 1010.2 0.0
30/01:00pm 23.0 19.9 13.5 55 5.5 NNW 22 35 12 19 1010.7 1010.7 0.0
30/12:30pm 23.3 19.9 13.8 55 5.5 NNW 24 35 13 19 1011.2 1011.2 0.0
30/12:00pm 22.9 19.9 13.7 56 5.4 N 22 33 12 18 1011.7 1011.7 0.0
30/11:30am 23.2 20.7 14.2 57 5.3 N 20 32 11 17 1012.1 1012.1 0.0
30/11:00am 22.3 20.3 14.9 63 4.4 N 19 30 10 16 1012.5 1012.5 0.0
30/10:30am 21.6 19.2 15.4 68 3.7 N 22 32 12 17 1013.0 1013.0 0.0
30/10:00am 20.9 18.6 15.7 72 3.1 N 22 32 12 17 1012.8 1012.8 0.0
30/09:30am 20.0 18.3 15.8 77 2.5 N 19 26 10 14 1013.1 1013.1 0.0
30/09:00am 18.3 17.1 16.1 87 1.3 N 17 28 9 15 1013.4 1013.4 7.8
30/08:30am 15.8 16.0 14.7 93 0.6 N 7 9 4 5 1013.5 1013.5 7.8
30/08:00am 16.3 16.7 15.2 93 0.6 N 7 11 4 6 1013.3 1013.3 7.8
30/07:30am 15.2 14.8 14.1 93 0.6 NNE 9 13 5 7 1013.2 1013.2 7.8
30/07:00am 14.7 14.2 13.7 94 0.6 N 9 13 5 7 1013.1 1013.1 7.8
30/06:30am 14.8 14.4 14.0 95 0.5 N 9 13 5 7 1012.8 1012.8 7.8
30/06:00am 13.7 13.5 13.1 96 0.3 N 6 7 3 4 1012.9 1012.9 7.8
30/05:30am 13.9 13.6 13.3 96 0.3 NNE 7 11 4 6 1012.8 1012.8 7.8
30/05:00am 12.6 12.1 12.0 96 0.3 NNE 6 9 3 5 1012.8 1012.8 7.8
30/04:30am 10.6 9.9 10.0 96 0.3 NNW 4 6 2 3 1012.7 1012.7 7.8
30/04:00am 10.7 10.7 9.9 95 0.4 CALM 0 0 0 0 1012.6 1012.6 7.8
30/03:30am 10.9 11.0 10.1 95 0.4 CALM 0 0 0 0 1012.6 1012.6 7.8
30/03:00am 11.3 11.5 10.5 95 0.4 CALM 0 0 0 0 1012.9 1012.9 7.8
30/02:30am 11.5 11.7 10.7 95 0.4 CALM 0 0 0 0 1013.0 1013.0 7.8
30/02:00am 11.6 11.9 10.8 95 0.4 CALM 0 0 0 0 1013.3 1013.3 7.8
30/01:30am 12.0 12.0 11.2 95 0.4 WNW 2 6 1 3 1013.3 1013.3 7.8
30/01:00am 12.7 13.3 11.9 95 0.4 CALM 0 0 0 0 1013.4 1013.4 7.8
30/12:30am 12.7 13.3 11.9 95 0.4 CALM 0 0 0 0 1013.4 1013.4 7.8
30/12:00am 13.1 13.8 12.3 95 0.4 CALM 0 2 0 1 1013.5 1013.5 7.8
 
Date/Time
EST
Temp
°C
App
Temp
°C
Dew
Point
Rel
Hum
%
Delta-T
°C
Wind Press
QNH
hPa
Press
MSL
hPa
Rain
since 9 am
mm
Dir
 
Spd
km/h
Gust
km/h
Spd
kts
Gust
kts
29/11:30pm 13.5 14.3 12.6 94 0.5 CALM 0 0 0 0 1013.7 1013.7 7.8
29/11:00pm 13.7 13.4 12.8 94 0.5 WSW 6 7 3 4 1013.9 1013.9 7.8
29/10:30pm 14.6 15.7 13.5 93 0.6 CALM 0 0 0 0 1013.8 1013.8 7.8
29/10:00pm 16.4 17.0 15.3 93 0.6 N 6 9 3 5 1013.9 1013.9 7.8
29/09:30pm 16.1 16.6 15.0 93 0.6 NNE 6 7 3 4 1013.8 1013.8 7.8
29/09:00pm 16.1 16.6 15.0 93 0.6 NNE 6 7 3 4 1013.7 1013.7 7.8
29/08:30pm 16.3 16.9 15.2 93 0.6 NNE 6 7 3 4 1013.3 1013.3 7.8
29/08:00pm 16.2 16.7 14.9 92 0.7 N 6 7 3 4 1013.2 1013.2 7.8
29/07:30pm 16.8 17.3 15.5 92 0.8 N 7 9 4 5 1013.2 1013.2 7.8
29/07:00pm 17.1 17.3 15.8 92 0.8 N 9 13 5 7 1012.9 1012.9 7.8
29/06:30pm 16.8 17.6 15.8 94 0.6 NNE 6 9 3 5 1012.7 1012.7 7.8
29/06:00pm 17.2 17.9 16.2 94 0.6 NNE 7 9 4 5 1012.5 1012.5 7.8
29/05:30pm 17.2 17.9 16.1 93 0.7 NNE 7 11 4 6 1012.3 1012.3 7.8
29/05:00pm 17.2 17.1 16.1 93 0.7 N 11 15 6 8 1012.2 1012.2 7.8
29/04:30pm 17.3 16.6 16.3 94 0.6 NNE 15 22 8 12 1012.3 1012.3 7.8
29/04:00pm 17.0 15.8 16.0 94 0.6 NNE 17 22 9 12 1012.1 1012.1 7.8
29/03:30pm 16.7 15.8 15.9 95 0.5 NNE 15 24 8 13 1012.4 1012.4 7.8
29/03:00pm 16.4 15.4 15.6 95 0.5 NNE 15 24 8 13 1012.6 1012.6 7.8
29/02:30pm 16.4 15.0 15.6 95 0.5 NE 17 26 9 14 1012.6 1012.6 7.6
29/02:00pm 16.4 14.9 15.4 94 0.6 NNE 17 28 9 15 1012.6 1012.6 7.0

Other Formats:

Comma delimited format used in spreadsheet applications
http://www.bom.gov.au/fwo/IDV60801/IDV60801.94857.axf

JavaScript Object Notation format (JSON) in row-major order
http://www.bom.gov.au/fwo/IDV60801/IDV60801.94857.json